Yorktown Heights, New York
Current Conditions -  °F | °C
As of 2:56 PM on Monday 26 Jan 2015 (Local Time) from KHPN Reporting Station
Light Snow Light Snow  
Wind Chill: 10°   Ceiling: 1000
Heat Index: 22°   Visibility: 0.75mi
Dew Point: 18°   Wind: 12mph
Humidity: 85%   Direction: 50°NE
Pressure: 29.85"   Gusts: NA
Location:  41.27°N, 73.78°W
Report Text: KHPN 261956Z 05010KT 3/4SM R16/3500V4000FT -SN BR OVC010 M06/M08 A2985 RMK AO2 SLP121 P0001 T10561078
Loading
Personal Weather Stations






























Interactive Weather Map New forecast layout! Learn more

10-Day Weather Forecast

Advertisements
Track Severe Weather on mobile